Weather at Ramon Airport

Public forecast

Using degrees Celsius for public forecast. Weather courtesy of forecast.io.

Closest aviation weather report (METAR) to Ramon Airport

Closest report is Aqaba King Hussein International Airport, 6.7 nm (12.5 km) S. Retrieved 2020/09/29 13:00 UTC (25 minutes ago):

OJAQ 291300Z 36010KT CAVOK 38/19 Q1008 NOSIG

Aviation forecast (TAF) for Ramon Airport

Retrieved 2020/09/29 12:00 UTC (1 hour ago):

TAF LLER 291102Z 2912/3012 01017KT CAVOK BECMG 2919/2921 35010KT BECMG 3006/3008 02015KT TX38/2913Z TN26/3004Z